createdAt,value
2023-01-19T00:01:11.732Z,14.90
2023-01-19T00:03:39.655Z,13.48
2023-01-19T00:06:08.226Z,14.35
2023-01-19T00:08:36.684Z,15.30
2023-01-19T00:11:05.108Z,14.25
2023-01-19T00:13:33.343Z,14.98
2023-01-19T00:16:01.207Z,15.15
2023-01-19T00:18:29.212Z,15.35
2023-01-19T00:20:57.070Z,13.98
2023-01-19T00:23:24.966Z,12.90
2023-01-19T00:25:52.890Z,14.02
2023-01-19T00:28:20.800Z,13.60
2023-01-19T00:30:50.667Z,13.75
2023-01-19T00:33:18.596Z,12.98
2023-01-19T00:35:52.834Z,13.65
2023-01-19T00:38:21.351Z,12.57
2023-01-19T00:40:49.503Z,12.90
2023-01-19T00:43:17.329Z,11.40
2023-01-19T00:45:46.080Z,12.43
2023-01-19T00:48:14.071Z,11.27
2023-01-19T00:50:42.194Z,12.18
2023-01-19T00:53:10.146Z,12.68
2023-01-19T00:55:38.004Z,11.05
2023-01-19T00:58:07.431Z,11.25
2023-01-19T01:00:35.259Z,10.40
2023-01-19T01:03:03.601Z,10.85
2023-01-19T01:05:31.878Z,12.60
2023-01-19T01:07:59.806Z,12.02
2023-01-19T01:10:29.358Z,11.43
2023-01-19T01:13:21.985Z,11.63
2023-01-19T01:15:45.183Z,11.90
2023-01-19T01:18:13.108Z,11.70
2023-01-19T01:20:41.116Z,11.55
2023-01-19T01:23:09.212Z,11.52
2023-01-19T01:25:38.764Z,11.55
2023-01-19T01:28:08.963Z,12.05
2023-01-19T01:30:40.323Z,10.40
2023-01-19T01:33:08.769Z,11.30
2023-01-19T01:35:36.629Z,11.10
2023-01-19T01:38:04.695Z,10.38
2023-01-19T01:40:32.687Z,10.52
2023-01-19T01:43:00.785Z,10.55
2023-01-19T01:45:31.660Z,9.77
2023-01-19T01:48:22.479Z,10.93
2023-01-19T01:51:23.250Z,11.38
2023-01-19T01:54:01.194Z,9.88
2023-01-19T01:56:36.223Z,8.95
2023-01-19T01:59:09.726Z,10.57
2023-01-19T02:01:56.174Z,9.65
2023-01-19T02:04:24.584Z,10.80
2023-01-19T02:07:11.137Z,11.23
2023-01-19T02:09:57.366Z,10.40
2023-01-19T02:12:44.118Z,11.13
2023-01-19T02:15:18.395Z,10.15
2023-01-19T02:17:47.117Z,9.85
2023-01-19T02:20:15.908Z,10.32
2023-01-19T02:22:49.981Z,10.73
2023-01-19T02:25:20.394Z,11.05
2023-01-19T02:27:50.434Z,11.32
2023-01-19T02:30:19.260Z,11.25
2023-01-19T02:32:47.455Z,11.88
2023-01-19T02:35:16.201Z,11.48
2023-01-19T02:37:45.447Z,9.68
2023-01-19T02:40:20.014Z,9.88
2023-01-19T02:42:53.485Z,10.63
2023-01-19T02:45:23.349Z,10.50
2023-01-19T02:47:52.757Z,9.60
2023-01-19T02:50:38.499Z,11.35
2023-01-19T02:53:47.703Z,11.25
2023-01-19T02:56:34.238Z,10.35
2023-01-19T02:59:23.680Z,9.88
2023-01-19T03:02:12.800Z,9.73
2023-01-19T03:04:50.818Z,9.48
2023-01-19T03:07:30.038Z,10.70
2023-01-19T03:10:11.916Z,9.93
2023-01-19T03:12:48.867Z,10.93
2023-01-19T03:15:34.946Z,11.10
2023-01-19T03:18:08.702Z,10.48
2023-01-19T03:20:38.090Z,11.60
2023-01-19T03:23:11.192Z,11.60
2023-01-19T03:25:43.173Z,11.07
2023-01-19T03:28:13.935Z,12.55
2023-01-19T03:30:50.862Z,12.30
2023-01-19T03:33:27.657Z,13.10
2023-01-19T03:36:03.982Z,14.85
2023-01-19T03:38:38.442Z,16.05
2023-01-19T03:41:11.795Z,15.25
2023-01-19T03:43:40.820Z,15.85
2023-01-19T03:46:11.191Z,15.20
2023-01-19T03:48:40.217Z,16.02
2023-01-19T03:51:10.053Z,13.70
2023-01-19T03:53:37.967Z,16.30
2023-01-19T03:56:06.762Z,17.80
2023-01-19T03:58:34.665Z,15.13
2023-01-19T04:01:04.371Z,12.95
2023-01-19T04:03:32.288Z,12.48
2023-01-19T04:06:00.173Z,12.43
2023-01-19T04:08:28.255Z,12.38
2023-01-19T04:10:58.340Z,12.55
2023-01-19T04:13:28.968Z,12.75
2023-01-19T04:16:01.451Z,14.00
2023-01-19T04:18:32.369Z,13.23
2023-01-19T04:21:07.449Z,12.20
2023-01-19T04:23:35.706Z,12.35
2023-01-19T04:26:08.952Z,12.35
2023-01-19T04:28:40.289Z,11.27
2023-01-19T04:31:08.590Z,10.48
2023-01-19T04:33:36.533Z,12.38
2023-01-19T04:36:04.826Z,12.68
2023-01-19T04:38:32.782Z,10.93
2023-01-19T04:41:00.725Z,10.38
2023-01-19T04:43:28.547Z,12.50
2023-01-19T04:45:57.144Z,10.85
2023-01-19T04:48:25.331Z,11.55
2023-01-19T04:50:53.153Z,11.40
2023-01-19T04:53:21.039Z,11.90
2023-01-19T04:55:53.852Z,13.25
2023-01-19T04:58:21.970Z,13.52
2023-01-19T05:00:51.333Z,12.20
2023-01-19T05:03:20.379Z,11.50
2023-01-19T05:05:48.460Z,12.52
2023-01-19T05:08:16.461Z,12.82
2023-01-19T05:10:44.342Z,13.18
2023-01-19T05:13:12.126Z,12.60
2023-01-19T05:15:40.019Z,12.90
2023-01-19T05:18:07.938Z,14.32
2023-01-19T05:20:35.998Z,13.50
2023-01-19T05:23:04.128Z,12.73
2023-01-19T05:25:32.087Z,12.10
2023-01-19T05:28:00.050Z,12.15
2023-01-19T05:30:28.818Z,13.63
2023-01-19T05:32:57.018Z,13.27
2023-01-19T05:35:35.317Z,13.57
2023-01-19T05:38:04.401Z,13.68
2023-01-19T05:40:32.350Z,12.85
2023-01-19T05:43:01.635Z,11.88
2023-01-19T05:45:29.890Z,12.25
2023-01-19T05:47:57.717Z,11.98
2023-01-19T05:50:25.676Z,13.50
2023-01-19T05:52:53.592Z,12.48
2023-01-19T05:55:22.044Z,12.38
2023-01-19T05:57:50.375Z,12.35
2023-01-19T06:00:18.998Z,11.35
2023-01-19T06:02:49.444Z,12.65
2023-01-19T06:05:17.642Z,12.93
2023-01-19T06:07:45.624Z,12.07
2023-01-19T06:10:13.609Z,13.02
2023-01-19T06:12:42.287Z,11.68
2023-01-19T06:15:11.229Z,12.05
2023-01-19T06:17:40.249Z,12.35
2023-01-19T06:20:09.910Z,11.48
2023-01-19T06:22:37.827Z,12.98
2023-01-19T06:25:06.193Z,10.23
2023-01-19T06:27:34.076Z,10.90
2023-01-19T06:30:02.134Z,10.82
2023-01-19T06:32:31.065Z,11.10
2023-01-19T06:34:58.968Z,11.32
2023-01-19T06:37:28.496Z,10.52
2023-01-19T06:39:56.364Z,11.18
2023-01-19T06:42:24.215Z,11.90
2023-01-19T06:44:52.070Z,11.90
2023-01-19T06:47:20.062Z,10.65
2023-01-19T06:49:49.163Z,11.27
2023-01-19T06:52:18.480Z,9.77
2023-01-19T06:54:46.773Z,10.95
2023-01-19T06:57:14.737Z,11.07
2023-01-19T06:59:42.683Z,9.40
2023-01-19T07:02:27.245Z,8.40
2023-01-19T07:04:56.906Z,8.02
2023-01-19T07:07:24.969Z,8.18
2023-01-19T07:09:54.010Z,8.63
2023-01-19T07:12:23.157Z,8.05
2023-01-19T07:14:51.584Z,8.27
2023-01-19T07:17:19.825Z,7.55
2023-01-19T07:19:47.818Z,7.05
2023-01-19T07:22:15.660Z,7.25
2023-01-19T07:24:43.782Z,7.15
2023-01-19T07:27:16.479Z,6.55
2023-01-19T07:29:44.404Z,5.70
2023-01-19T07:32:13.073Z,6.93
2023-01-19T07:34:40.981Z,6.68
2023-01-19T07:37:08.885Z,6.22
2023-01-19T07:39:36.875Z,5.80
2023-01-19T07:42:04.923Z,5.85
2023-01-19T07:44:32.825Z,6.15
2023-01-19T07:47:00.755Z,5.97
2023-01-19T07:49:28.605Z,6.20
2023-01-19T07:51:56.620Z,6.30
2023-01-19T07:54:24.747Z,6.32
2023-01-19T07:56:55.543Z,6.53
2023-01-19T07:59:23.760Z,6.10
2023-01-19T08:01:53.614Z,5.32
2023-01-19T08:04:21.803Z,4.72
2023-01-19T08:06:49.936Z,4.85
2023-01-19T08:09:18.364Z,4.68
2023-01-19T08:11:46.934Z,5.20
2023-01-19T08:14:14.812Z,5.22
2023-01-19T08:16:42.788Z,6.40
2023-01-19T08:19:10.701Z,6.07
2023-01-19T08:21:39.170Z,5.78
2023-01-19T08:24:07.335Z,5.32
2023-01-19T08:26:36.050Z,5.47
2023-01-19T08:29:06.112Z,4.65
2023-01-19T08:31:34.129Z,4.32
2023-01-19T08:34:02.167Z,4.22
2023-01-19T08:36:30.568Z,3.85
2023-01-19T08:38:58.424Z,4.28
2023-01-19T08:41:27.059Z,4.13
2023-01-19T08:43:54.982Z,4.30
2023-01-19T08:46:22.894Z,4.68
2023-01-19T08:48:50.868Z,4.13
2023-01-19T08:51:19.511Z,4.10
2023-01-19T08:53:47.527Z,4.38
2023-01-19T08:56:15.507Z,3.53
2023-01-19T08:58:45.036Z,4.15
2023-01-19T09:01:15.116Z,4.20
2023-01-19T09:03:44.147Z,4.18
2023-01-19T09:06:17.201Z,4.18
2023-01-19T09:08:46.022Z,3.73
2023-01-19T09:11:15.879Z,3.50
2023-01-19T09:13:43.908Z,3.90
2023-01-19T09:16:13.540Z,4.15
2023-01-19T09:18:41.915Z,3.83
2023-01-19T09:21:10.143Z,4.00
2023-01-19T09:23:38.332Z,4.10
2023-01-19T09:26:06.835Z,3.35
2023-01-19T09:28:35.206Z,3.80
2023-01-19T09:31:09.615Z,3.83
2023-01-19T09:33:37.750Z,3.20
2023-01-19T09:36:05.905Z,3.50
2023-01-19T09:38:34.227Z,4.53
2023-01-19T09:41:02.094Z,4.28
2023-01-19T09:44:00.338Z,5.10
2023-01-19T09:46:40.060Z,4.60
2023-01-19T09:49:14.602Z,4.20
2023-01-19T09:51:46.746Z,4.13
2023-01-19T09:54:16.498Z,4.00
2023-01-19T09:56:46.315Z,3.38
2023-01-19T09:59:29.940Z,3.55
2023-01-19T10:02:42.382Z,3.28
2023-01-19T10:05:45.935Z,3.15
2023-01-19T10:08:40.863Z,3.40
2023-01-19T10:11:52.113Z,2.78
2023-01-19T10:14:36.828Z,2.50
2023-01-19T10:17:48.130Z,2.15
2023-01-19T10:20:35.949Z,2.97
2023-01-19T10:23:17.490Z,1.95
2023-01-19T10:25:46.321Z,2.72
2023-01-19T10:28:16.839Z,2.55
2023-01-19T10:30:46.960Z,2.97
2023-01-19T10:33:15.551Z,2.42
2023-01-19T10:35:45.231Z,2.78
2023-01-19T10:38:15.981Z,2.50
2023-01-19T10:40:53.744Z,2.95
2023-01-19T10:43:42.129Z,2.75
2023-01-19T10:46:34.828Z,2.65
2023-01-19T10:49:03.503Z,2.85
2023-01-19T10:51:31.559Z,2.42
2023-01-19T10:54:02.843Z,2.15
2023-01-19T10:56:38.635Z,2.72
2023-01-19T10:59:07.811Z,2.35
2023-01-19T11:01:38.589Z,3.25
2023-01-19T11:04:29.954Z,2.97
2023-01-19T11:07:20.629Z,1.98
2023-01-19T11:09:49.421Z,2.15
2023-01-19T11:12:24.606Z,3.75
2023-01-19T11:14:53.672Z,4.10
2023-01-19T11:17:25.603Z,2.28
2023-01-19T11:20:01.067Z,2.28
2023-01-19T11:22:33.813Z,2.10
2023-01-19T11:25:04.621Z,2.42
2023-01-19T11:27:36.406Z,1.88
2023-01-19T11:30:21.441Z,1.58
2023-01-19T11:32:49.639Z,1.50
2023-01-19T11:35:36.732Z,1.77
2023-01-19T11:38:18.619Z,2.30
2023-01-19T11:40:58.362Z,1.90
2023-01-19T11:43:47.537Z,3.10
2023-01-19T11:46:18.026Z,2.80
2023-01-19T11:49:08.654Z,2.22
2023-01-19T11:51:51.081Z,2.75
2023-01-19T11:54:25.900Z,2.60
2023-01-19T11:56:55.933Z,2.53
2023-01-19T11:59:27.119Z,2.92
2023-01-19T12:02:00.791Z,2.30
2023-01-19T12:04:34.891Z,2.58
2023-01-19T12:07:10.728Z,3.72
2023-01-19T12:09:46.430Z,2.90
2023-01-19T12:12:17.126Z,2.08
2023-01-19T12:14:52.419Z,2.10
2023-01-19T12:17:27.543Z,1.88
2023-01-19T12:20:06.021Z,3.15
2023-01-19T12:22:43.530Z,2.00
2023-01-19T12:25:43.309Z,2.25
2023-01-19T12:28:14.653Z,2.50
2023-01-19T12:30:42.865Z,2.17
2023-01-19T12:33:29.624Z,2.15
2023-01-19T12:36:18.844Z,2.80
2023-01-19T12:38:55.316Z,2.50
2023-01-19T12:41:25.484Z,2.30
2023-01-19T12:44:11.439Z,4.00
2023-01-19T12:46:44.714Z,1.75
2023-01-19T12:49:12.705Z,2.65
2023-01-19T12:51:40.942Z,2.50
2023-01-19T12:54:21.096Z,2.55
2023-01-19T12:56:49.919Z,2.70
2023-01-19T12:59:26.222Z,2.67
2023-01-19T13:02:18.755Z,2.85
2023-01-19T13:05:14.433Z,2.50
2023-01-19T13:08:07.057Z,3.28
2023-01-19T13:10:54.020Z,3.58
2023-01-19T13:13:25.485Z,3.53
2023-01-19T13:15:55.870Z,3.28
2023-01-19T13:18:32.107Z,3.15
2023-01-19T13:21:04.824Z,2.55
2023-01-19T13:23:47.769Z,2.63
2023-01-19T13:26:34.335Z,3.10
2023-01-19T13:29:16.802Z,2.83
2023-01-19T13:31:46.156Z,2.25
2023-01-19T13:34:18.635Z,2.67
2023-01-19T13:36:51.623Z,3.33
2023-01-19T13:39:19.516Z,2.70
2023-01-19T13:41:48.703Z,1.83
2023-01-19T13:44:30.803Z,1.30
2023-01-19T13:47:00.380Z,2.00
2023-01-19T13:49:35.866Z,1.73
2023-01-19T13:52:08.065Z,1.70
2023-01-19T13:54:36.020Z,1.60
2023-01-19T13:57:53.488Z,1.20
2023-01-19T14:00:27.112Z,1.60
2023-01-19T14:02:59.483Z,1.45
2023-01-19T14:05:30.439Z,2.30
2023-01-19T14:08:13.659Z,1.85
2023-01-19T14:10:54.307Z,2.50
2023-01-19T14:13:29.629Z,2.80
2023-01-19T14:16:05.596Z,2.75
2023-01-19T14:18:35.358Z,3.65
2023-01-19T14:21:14.587Z,3.95
2023-01-19T14:23:54.584Z,4.00
2023-01-19T14:26:37.799Z,4.00
2023-01-19T14:29:27.325Z,3.15
2023-01-19T14:32:01.232Z,4.03
2023-01-19T14:34:34.049Z,3.60
2023-01-19T14:37:04.215Z,4.30
2023-01-19T14:39:35.279Z,4.70
2023-01-19T14:42:06.966Z,4.68
2023-01-19T14:44:39.868Z,4.75
2023-01-19T14:47:29.617Z,5.88
2023-01-19T14:50:02.405Z,3.58
2023-01-19T14:52:38.503Z,3.97
2023-01-19T14:55:16.926Z,5.40
2023-01-19T14:57:44.793Z,4.80
2023-01-19T15:00:17.459Z,9.52
2023-01-19T15:02:46.909Z,8.63
2023-01-19T15:05:15.436Z,8.55
2023-01-19T15:07:45.792Z,7.32
2023-01-19T15:10:23.934Z,4.97
2023-01-19T15:12:54.768Z,4.10
2023-01-19T15:15:33.983Z,3.42
2023-01-19T15:18:04.614Z,4.15
2023-01-19T15:20:32.460Z,4.05
2023-01-19T15:23:00.411Z,5.28
2023-01-19T15:25:28.348Z,3.60
2023-01-19T15:28:00.033Z,3.47
2023-01-19T15:30:33.694Z,4.03
2023-01-19T15:33:02.596Z,4.43
2023-01-19T15:35:30.727Z,4.63
2023-01-19T15:37:58.674Z,3.90
2023-01-19T15:40:26.901Z,4.40
2023-01-19T15:42:54.993Z,5.22
2023-01-19T15:45:31.166Z,5.03
2023-01-19T15:48:00.888Z,4.70
2023-01-19T15:50:28.724Z,4.45
2023-01-19T15:52:56.563Z,5.30
2023-01-19T15:55:24.736Z,7.32
2023-01-19T15:57:52.875Z,5.18
2023-01-19T16:00:20.926Z,4.95
2023-01-19T16:02:50.351Z,4.70
2023-01-19T16:05:18.387Z,4.78
2023-01-19T16:07:46.302Z,12.10
2023-01-19T16:10:17.012Z,10.00
2023-01-19T16:12:46.708Z,8.50
2023-01-19T16:15:18.409Z,8.18
2023-01-19T16:17:46.348Z,9.95
2023-01-19T16:20:14.978Z,6.53
2023-01-19T16:22:43.062Z,5.45
2023-01-19T16:25:12.434Z,5.70
2023-01-19T16:27:40.325Z,6.68
2023-01-19T16:30:10.921Z,6.80
2023-01-19T16:32:39.038Z,6.20
2023-01-19T16:35:07.311Z,6.50
2023-01-19T16:37:35.262Z,6.18
2023-01-19T16:40:04.404Z,6.05
2023-01-19T16:42:32.380Z,5.78
2023-01-19T16:45:00.829Z,5.88
2023-01-19T16:47:28.744Z,6.60
2023-01-19T16:49:56.752Z,6.15
2023-01-19T16:52:24.543Z,8.40
2023-01-19T16:54:54.795Z,7.57
2023-01-19T16:57:22.766Z,6.55
2023-01-19T16:59:51.672Z,6.80
2023-01-19T17:02:19.522Z,7.28
2023-01-19T17:04:47.391Z,6.30
2023-01-19T17:07:15.532Z,6.82
2023-01-19T17:09:43.976Z,6.53
2023-01-19T17:12:12.696Z,6.20
2023-01-19T17:14:41.283Z,5.63
2023-01-19T17:17:12.244Z,6.22
2023-01-19T17:19:40.385Z,5.95
2023-01-19T17:22:08.230Z,6.00
2023-01-19T17:24:36.188Z,5.63
2023-01-19T17:27:04.243Z,4.38
2023-01-19T17:29:32.108Z,4.45
2023-01-19T17:32:00.021Z,3.70
2023-01-19T17:34:28.712Z,4.22
2023-01-19T17:37:03.078Z,4.40
2023-01-19T17:39:31.309Z,4.78
2023-01-19T17:41:59.373Z,4.10
2023-01-19T17:44:27.206Z,4.20
2023-01-19T17:46:57.376Z,4.40
2023-01-19T17:49:25.910Z,4.43
2023-01-19T17:51:55.933Z,4.53
2023-01-19T17:54:23.957Z,4.38
2023-01-19T17:56:51.874Z,3.80
2023-01-19T17:59:19.727Z,6.75
2023-01-19T18:01:47.978Z,9.85
2023-01-19T18:04:15.857Z,3.60
2023-01-19T18:06:43.735Z,4.38
2023-01-19T18:09:11.645Z,3.97
2023-01-19T18:11:42.856Z,3.40
2023-01-19T18:14:12.393Z,3.42
2023-01-19T18:16:41.596Z,2.80
2023-01-19T18:19:09.725Z,2.70
2023-01-19T18:21:38.302Z,2.13
2023-01-19T18:24:09.757Z,2.17
2023-01-19T18:26:39.137Z,1.83
2023-01-19T18:29:07.098Z,1.58
2023-01-19T18:31:35.242Z,1.75
2023-01-19T18:34:03.799Z,1.52
2023-01-19T18:36:32.834Z,1.70
2023-01-19T18:39:01.872Z,1.30
2023-01-19T18:41:30.302Z,1.48
2023-01-19T18:43:59.150Z,1.48
2023-01-19T18:46:27.724Z,1.95
2023-01-19T18:48:55.797Z,4.13
2023-01-19T18:51:24.371Z,4.10
2023-01-19T18:53:52.251Z,4.90
2023-01-19T18:56:22.930Z,4.57
2023-01-19T18:58:53.281Z,4.90
2023-01-19T19:01:23.168Z,4.45
2023-01-19T19:03:52.117Z,5.03
2023-01-19T19:06:21.109Z,5.78
2023-01-19T19:08:50.586Z,5.43
2023-01-19T19:11:20.600Z,5.47
2023-01-19T19:14:03.994Z,7.38
2023-01-19T19:16:35.105Z,6.38
2023-01-19T19:19:04.627Z,6.63
2023-01-19T19:21:33.027Z,6.80
2023-01-19T19:24:03.122Z,6.60
2023-01-19T19:26:31.608Z,7.13
2023-01-19T19:29:04.763Z,6.70
2023-01-19T19:31:34.404Z,7.57
2023-01-19T19:34:03.662Z,7.82
2023-01-19T19:36:32.869Z,8.20
2023-01-19T19:39:01.352Z,7.72
2023-01-19T19:41:29.750Z,8.68
2023-01-19T19:43:59.339Z,8.25
2023-01-19T19:46:27.449Z,8.13
2023-01-19T19:48:55.657Z,9.23
2023-01-19T19:51:27.315Z,9.05
2023-01-19T19:53:57.717Z,8.88
2023-01-19T19:56:28.516Z,8.10
2023-01-19T19:58:58.199Z,7.28
2023-01-19T20:01:32.522Z,8.65
2023-01-19T20:04:06.894Z,8.13
2023-01-19T20:09:10.010Z,8.45
2023-01-19T20:11:42.417Z,9.18
2023-01-19T20:14:12.897Z,9.07
2023-01-19T20:16:40.966Z,10.73
2023-01-19T20:19:09.287Z,9.48
2023-01-19T20:21:39.585Z,8.93
2023-01-19T20:24:14.942Z,8.85
2023-01-19T20:26:46.276Z,9.32
2023-01-19T20:29:14.265Z,10.38
2023-01-19T20:31:51.179Z,9.70
2023-01-19T20:34:23.649Z,9.70
2023-01-19T20:36:54.033Z,11.00
2023-01-19T20:39:23.762Z,10.80
2023-01-19T20:41:52.757Z,10.07
2023-01-19T20:44:23.672Z,11.02
2023-01-19T20:46:52.944Z,9.93
2023-01-19T20:49:21.671Z,10.18
2023-01-19T20:51:51.497Z,9.38
2023-01-19T20:54:22.235Z,9.20
2023-01-19T20:56:50.378Z,9.63
2023-01-19T20:59:18.550Z,9.95
2023-01-19T21:01:46.669Z,10.20
2023-01-19T21:04:15.636Z,8.55
2023-01-19T21:06:43.812Z,11.32
2023-01-19T21:09:11.818Z,24.75
2023-01-19T21:11:40.654Z,15.30
2023-01-19T21:14:08.619Z,14.50
2023-01-19T21:16:37.388Z,10.63
2023-01-19T21:19:05.796Z,10.05
2023-01-19T21:21:34.059Z,9.07
2023-01-19T21:24:03.433Z,9.23
2023-01-19T21:26:33.556Z,9.55
2023-01-19T21:29:02.820Z,8.98
2023-01-19T21:31:31.529Z,10.10
2023-01-19T21:34:00.195Z,9.57
2023-01-19T21:36:31.115Z,9.82
2023-01-19T21:39:00.989Z,10.27
2023-01-19T21:41:34.221Z,9.30
2023-01-19T21:44:02.910Z,8.30
2023-01-19T21:46:32.938Z,8.10
2023-01-19T21:49:04.284Z,9.27
2023-01-19T21:51:34.835Z,8.55
2023-01-19T21:54:05.078Z,9.15
2023-01-19T21:56:33.985Z,8.98
2023-01-19T21:59:04.903Z,9.18
2023-01-19T22:01:33.898Z,9.57
2023-01-19T22:04:02.041Z,8.40
2023-01-19T22:06:30.468Z,8.30
2023-01-19T22:08:58.568Z,9.07
2023-01-19T22:11:27.163Z,9.00
2023-01-19T22:13:55.275Z,8.63
2023-01-19T22:16:24.352Z,7.80
2023-01-19T22:18:56.971Z,7.43
2023-01-19T22:21:27.164Z,10.52
2023-01-19T22:23:57.385Z,9.50
2023-01-19T22:26:28.407Z,8.82
2023-01-19T22:28:59.250Z,9.45
2023-01-19T22:31:29.501Z,9.43
2023-01-19T22:33:57.991Z,8.07
2023-01-19T22:36:35.915Z,9.27
2023-01-19T22:39:07.603Z,8.60
2023-01-19T22:41:38.139Z,8.50
2023-01-19T22:44:09.413Z,8.40
2023-01-19T22:46:38.044Z,9.40
2023-01-19T22:49:08.233Z,9.00
2023-01-19T22:51:36.764Z,9.15
2023-01-19T22:54:05.495Z,8.95
2023-01-19T22:56:35.337Z,8.90
2023-01-19T22:59:04.867Z,9.30
2023-01-19T23:01:36.168Z,9.18
2023-01-19T23:04:05.868Z,9.93
2023-01-19T23:06:36.971Z,9.48
2023-01-19T23:09:07.769Z,9.30
2023-01-19T23:11:38.925Z,10.35
2023-01-19T23:14:08.276Z,10.40
2023-01-19T23:16:38.726Z,9.27
2023-01-19T23:19:07.086Z,9.48
2023-01-19T23:21:35.295Z,8.82
2023-01-19T23:24:05.192Z,10.07
2023-01-19T23:26:39.807Z,8.38
2023-01-19T23:29:11.828Z,8.63
2023-01-19T23:31:43.468Z,8.07
2023-01-19T23:34:12.930Z,7.32
2023-01-19T23:36:42.308Z,8.50
2023-01-19T23:39:19.804Z,8.80
2023-01-19T23:41:48.952Z,8.48
2023-01-19T23:44:18.054Z,9.27
2023-01-19T23:46:46.451Z,9.05
2023-01-19T23:49:14.390Z,8.48
2023-01-19T23:51:43.106Z,8.55
2023-01-19T23:54:12.685Z,9.23
2023-01-19T23:56:43.130Z,8.95
2023-01-19T23:59:14.411Z,8.68
